Latest Weather Observations for Port Macquarie Airport

IDN60801

Issued at 7:05 pm EST Wednesday 23 April 2014 (issued every 30 minutes, with the page automatically refreshed every 10 minutes)

About weather observations | Map of weather stations | Latest weather observations for NSW | Other Formats
Station Details ID: 060139 Name: PORT MACQUARIE AIRPORT AWS Lat: -31.43 Lon: 152.87 Height: 4.2 m
Data from the previous 72 hours. | See also: Recent months at Port Macquarie Airport
Date/Time
EST
Temp
°C
App
Temp
°C
Dew
Point
Rel
Hum
%
Delta-T
°C
Wind Press
QNH
hPa
Press
MSL
hPa
Rain
since 9 am
mm
Dir
 
Spd
km/h
Gust
km/h
Spd
kts
Gust
kts
23/07:00pm 19.8 21.8 17.8 88 1.2 SSW 4 7 2 4 1015.7 - 0.0
23/06:30pm 20.3 21.7 17.9 86 1.5 SSW 7 9 4 5 1015.5 - 0.0
23/06:00pm 21.9 24.8 18.1 79 2.4 CALM 0 0 0 0 1015.2 1015.2 0.0
23/05:30pm 23.0 24.8 18.7 77 2.7 NNE 7 11 4 6 1014.9 - 0.0
23/05:00pm 23.5 25.3 18.4 73 3.2 N 6 7 3 4 1014.8 - 0.0
23/04:30pm 24.5 24.8 18.0 67 4.1 NNE 13 15 7 8 1014.6 - 0.0
23/04:00pm 25.4 26.6 19.1 68 4.0 NE 11 17 6 9 1014.5 - 0.0
23/03:30pm 25.7 26.5 19.1 67 4.2 NE 13 22 7 12 1014.4 - 0.0
23/03:00pm 24.6 24.4 18.5 69 3.9 NE 17 22 9 12 1014.1 1014.1 0.0
23/02:30pm 25.0 24.0 18.0 65 4.4 NE 20 28 11 15 1014.3 - 0.0
23/02:00pm 26.8 25.6 17.6 57 5.8 ENE 20 24 11 13 1014.4 - 0.0
23/01:30pm 27.1 26.1 16.7 53 6.5 NE 17 22 9 12 1014.3 - 0.0
23/01:00pm 27.1 25.9 16.1 51 6.8 NE 17 20 9 11 1014.5 - 0.0
23/12:30pm 27.5 27.3 16.8 52 6.7 NE 13 19 7 10 1015.1 - 0.0
23/12:00pm 26.7 26.8 17.5 57 5.8 ENE 13 19 7 10 1015.7 1015.7 0.0
23/11:30am 26.5 26.3 16.7 55 6.1 ENE 13 17 7 9 1016.1 - 0.0
23/11:00am 26.2 26.6 16.4 54 6.0 NNE 9 13 5 7 1016.7 - 0.0
23/10:30am 25.4 26.9 18.1 64 4.6 N 7 11 4 6 1017.3 - 0.0
23/10:00am 24.3 25.7 17.8 67 4.1 NNE 7 11 4 6 1017.6 - 0.0
23/09:30am 22.9 24.6 18.0 74 3.1 NW 6 9 3 5 1017.8 - 0.0
23/09:00am 20.4 22.6 16.4 78 2.4 CALM 0 6 0 3 1018.0 1018.0 0.0
23/08:30am 19.3 19.9 15.8 80 2.1 W 7 9 4 5 1018.1 - 0.0
23/08:00am 17.9 19.6 15.3 85 1.5 CALM 0 7 0 4 1017.9 - 0.0
23/07:30am 17.0 18.4 15.5 91 0.9 NW 2 7 1 4 1017.9 - 0.0
23/07:00am 16.6 18.4 15.5 93 0.6 CALM 0 0 0 0 1017.7 - 0.0
23/06:30am 16.6 17.7 15.5 93 0.6 N 4 7 2 4 1017.5 - 0.0
23/06:00am 16.3 17.8 15.7 96 0.4 W 2 7 1 4 1017.1 1017.1 0.0
23/05:30am 16.1 17.9 15.5 96 0.3 CALM 0 0 0 0 1016.7 - 0.0
23/05:00am 15.8 17.5 15.2 96 0.3 CALM 0 0 0 0 1016.8 - 0.0
23/04:30am 15.4 16.9 14.6 95 0.5 CALM 0 0 0 0 1016.5 - 0.0
23/04:00am 15.4 17.0 14.8 96 0.3 CALM 0 0 0 0 1016.5 - 0.0
23/03:30am 15.7 17.4 15.1 96 0.3 CALM 0 0 0 0 1016.5 - 0.0
23/03:00am 15.2 16.7 14.6 96 0.3 CALM 0 0 0 0 1016.4 1016.4 0.0
23/02:30am 14.8 16.1 14.0 95 0.4 CALM 0 6 0 3 1016.4 - 0.0
23/02:15am 15.0 16.4 14.4 96 0.3 CALM 0 0 0 0 1016.4 - 0.0
23/02:00am 16.0 17.8 15.4 96 0.3 CALM 0 6 0 3 1016.4 - 0.0
23/01:30am 14.8 16.0 13.8 94 0.6 CALM 0 0 0 0 1016.4 - 0.0
23/01:11am 15.7 17.3 14.9 95 0.5 CALM 0 6 0 3 1016.5 - 0.0
23/01:02am 15.7 16.5 14.9 95 0.5 W 4 7 2 4 1016.5 - 0.0
23/01:00am 15.7 16.5 14.9 95 0.5 SW 4 7 2 4 1016.5 - 0.0
23/12:30am 15.3 16.2 14.0 92 0.7 SSW 2 7 1 4 1016.5 - 0.0
23/12:00am 16.4 17.8 15.3 93 0.6 SW 2 6 1 3 1016.5 1016.5 0.0
 
Date/Time
EST
Temp
°C
App
Temp
°C
Dew
Point
Rel
Hum
%
Delta-T
°C
Wind Press
QNH
hPa
Press
MSL
hPa
Rain
since 9 am
mm
Dir
 
Spd
km/h
Gust
km/h
Spd
kts
Gust
kts
22/11:30pm 17.8 20.1 16.8 94 0.6 CALM 0 0 0 0 1016.5 - 0.0
22/11:00pm 17.9 18.9 16.9 94 0.6 NW 7 9 4 5 1016.8 - 0.0
22/10:30pm 18.5 20.0 17.5 94 0.6 N 6 9 3 5 1017.0 - 0.0
22/10:00pm 18.6 20.0 17.3 92 0.8 NW 6 9 3 5 1017.0 - 0.0
22/09:30pm 19.1 20.3 17.4 90 1.0 NW 7 9 4 5 1017.0 - 0.0
22/09:00pm 19.9 21.4 18.0 89 1.2 N 7 11 4 6 1016.9 1016.9 0.0
22/08:30pm 20.8 22.2 18.6 87 1.4 NNE 9 11 5 6 1016.8 - 0.0
22/08:00pm 20.8 22.5 18.4 86 1.5 NNE 7 9 4 5 1016.8 - 0.0
22/07:30pm 21.6 23.6 18.8 84 1.8 N 6 9 3 5 1016.8 - 0.0
22/07:00pm 21.2 22.7 18.8 86 1.5 N 9 13 5 7 1016.7 - 0.0
22/06:30pm 21.2 24.2 18.4 84 1.7 CALM 0 0 0 0 1016.5 - 0.0
22/06:00pm 22.4 25.6 18.8 80 2.3 CALM 0 0 0 0 1016.2 1016.2 0.0
22/05:30pm 23.2 25.3 19.4 79 2.4 NNE 7 11 4 6 1016.0 - 0.0
22/05:00pm 24.3 26.1 19.6 75 3.0 NE 9 13 5 7 1015.7 - 0.0
22/04:30pm 25.3 26.7 18.7 67 4.2 NE 9 15 5 8 1015.6 - 0.0
22/04:00pm 25.7 25.9 18.6 65 4.5 NE 15 19 8 10 1015.6 - 0.0
22/03:30pm 26.5 26.3 18.4 61 5.1 NE 17 22 9 12 1015.7 - 0.0
22/03:00pm 26.1 25.9 18.5 63 4.8 ENE 17 24 9 13 1015.7 1015.7 0.0
22/02:30pm 26.4 25.7 18.3 61 5.1 ENE 19 24 10 13 1015.7 - 0.0
22/02:00pm 27.1 25.9 17.6 56 6.0 ENE 20 28 11 15 1015.7 - 0.0
22/01:30pm 28.2 26.9 14.8 44 8.1 N 15 22 8 12 1015.9 - 0.0
22/01:00pm 27.6 26.1 14.3 44 8.0 N 15 20 8 11 1016.2 - 0.0
22/12:30pm 27.5 25.6 14.2 44 8.0 N 17 26 9 14 1016.6 - 0.0
22/12:00pm 27.9 27.0 15.9 48 7.4 N 15 22 8 12 1017.1 1017.1 0.0
22/11:30am 26.4 25.1 15.8 52 6.5 N 17 20 9 11 1017.8 - 0.0
22/11:00am 25.8 24.7 16.4 56 5.8 N 17 24 9 13 1018.2 - 0.0
22/10:30am 24.8 24.6 17.5 64 4.6 N 15 20 8 11 1018.5 - 0.0
22/10:00am 23.0 23.7 17.0 69 3.7 NW 9 17 5 9 1019.0 - 0.0
22/09:30am 20.8 20.6 15.6 72 3.1 NNW 11 15 6 8 1019.3 - 0.0
22/09:00am 19.7 19.2 14.9 74 2.8 NNW 11 13 6 7 1019.7 1019.7 0.0
22/08:30am 18.2 17.8 14.1 77 2.3 NW 9 11 5 6 1019.8 - 0.0
22/08:00am 16.4 16.0 12.9 80 1.9 NW 7 11 4 6 1019.9 - 0.0
22/07:30am 14.4 14.5 12.6 89 1.0 WNW 4 9 2 5 1020.0 - 0.0
22/07:00am 12.9 13.4 11.6 92 0.7 CALM 0 0 0 0 1019.8 - 0.0
22/06:30am 13.1 13.6 11.7 91 0.7 CALM 0 0 0 0 1019.6 - 0.0
22/06:00am 13.0 13.5 11.6 91 0.7 CALM 0 0 0 0 1019.5 1019.5 0.0
22/05:30am 13.2 13.7 11.6 90 0.9 CALM 0 6 0 3 1019.5 - 0.0
22/05:00am 13.5 12.9 11.6 88 1.0 W 6 7 3 4 1019.5 - 0.0
22/04:30am 13.4 13.1 11.3 87 1.1 W 4 6 2 3 1019.3 - 0.0
22/04:00am 13.9 14.4 11.6 86 1.2 CALM 0 6 0 3 1019.2 - 0.0
22/03:30am 14.2 13.6 11.7 85 1.3 W 6 9 3 5 1019.1 - 0.0
22/03:00am 14.2 14.7 11.7 85 1.3 CALM 0 7 0 4 1019.3 1019.3 0.0
22/02:30am 14.7 14.1 11.8 83 1.6 WNW 6 9 3 5 1019.4 - 0.0
22/02:00am 15.3 14.6 11.9 80 1.8 W 7 9 4 5 1019.5 - 0.0
22/01:30am 15.6 15.1 12.2 80 1.9 W 6 9 3 5 1019.9 - 0.0
22/01:00am 15.2 15.5 12.1 82 1.7 WNW 2 6 1 3 1020.2 - 0.0
22/12:30am 15.0 14.3 12.0 82 1.6 WNW 7 11 4 6 1020.1 - 0.0
22/12:00am 15.7 15.4 12.6 82 1.7 WNW 6 9 3 5 1020.1 1020.1 0.0
 
Date/Time
EST
Temp
°C
App
Temp
°C
Dew
Point
Rel
Hum
%
Delta-T
°C
Wind Press
QNH
hPa
Press
MSL
hPa
Rain
since 9 am
mm
Dir
 
Spd
km/h
Gust
km/h
Spd
kts
Gust
kts
21/11:30pm 16.1 15.7 12.5 79 2.0 W 6 9 3 5 1020.2 - 0.0
21/11:00pm 15.5 16.4 13.0 85 1.4 CALM 0 0 0 0 1020.4 - 0.0
21/10:30pm 15.1 16.2 13.6 91 0.8 CALM 0 4 0 2 1020.5 - 0.0
21/10:00pm 14.1 13.9 13.1 94 0.6 WNW 6 13 3 7 1020.7 - 0.0
21/09:30pm 12.6 13.0 11.2 91 0.7 CALM 0 0 0 0 1020.9 - 0.0
21/09:00pm 13.0 13.4 11.2 89 0.9 CALM 0 0 0 0 1020.8 1020.8 0.0
21/08:30pm 13.9 14.6 12.1 89 1.0 CALM 0 7 0 4 1020.7 - 0.0
21/08:00pm 13.8 14.3 11.5 86 1.2 CALM 0 0 0 0 1020.4 - 0.0
21/07:30pm 14.6 15.3 12.3 86 1.3 CALM 0 0 0 0 1020.3 - 0.0
21/07:00pm 15.0 15.7 12.1 83 1.6 CALM 0 0 0 0 1019.9 - 0.0
21/06:30pm 15.9 16.7 12.5 80 1.9 CALM 0 0 0 0 1019.6 - 0.0
21/06:00pm 17.1 17.9 12.4 74 2.6 CALM 0 0 0 0 1019.2 1019.2 0.0
21/05:30pm 18.7 19.5 12.5 67 3.5 CALM 0 0 0 0 1018.9 - 0.0
21/05:00pm 20.9 19.8 12.1 57 4.9 S 9 15 5 8 1018.5 - 0.0
21/04:30pm 21.9 20.3 11.6 52 5.7 SSE 11 15 6 8 1018.4 - 0.0
21/04:00pm 22.5 19.9 10.6 47 6.5 SSE 15 19 8 10 1018.2 - 0.0
21/03:30pm 22.9 19.8 10.3 45 6.9 S 17 20 9 11 1017.9 - 0.0
21/03:00pm 23.0 20.0 9.4 42 7.3 SSE 15 20 8 11 1017.9 1017.9 0.0
21/02:30pm 23.3 20.6 10.4 44 7.1 SSE 15 20 8 11 1017.8 - 0.0
21/02:00pm 23.1 20.1 10.5 45 6.9 SSE 17 20 9 11 1018.0 - 0.0
21/01:30pm 23.2 20.4 9.9 43 7.2 SSE 15 24 8 13 1018.1 - 0.0
21/01:00pm 23.3 20.4 9.7 42 7.4 SSE 15 20 8 11 1018.2 - 0.0
21/12:30pm 24.3 23.4 12.6 48 6.7 SSE 9 15 5 8 1018.5 - 0.0
21/12:00pm 23.6 22.6 10.3 43 7.3 NE 6 13 3 7 1018.8 1018.8 0.0
21/11:30am 23.3 22.1 11.7 48 6.5 ESE 9 13 5 7 1019.3 - 0.0
21/11:00am 22.7 21.6 10.8 47 6.6 SW 7 13 4 7 1019.7 - 0.0
21/10:30am 21.9 20.3 10.1 47 6.4 SSE 9 15 5 8 1019.9 - 0.0
21/10:00am 22.0 20.4 11.7 52 5.8 SSE 11 17 6 9 1020.1 - 0.0
21/09:30am 21.3 20.6 11.9 55 5.3 S 7 15 4 8 1020.4 - 0.0
21/09:00am 19.7 19.2 12.2 62 4.2 W 6 13 3 7 1020.5 1020.5 0.0
21/08:30am 17.7 17.7 12.4 71 2.9 W 4 7 2 4 1020.4 - 0.0
21/08:00am 16.1 16.6 12.8 81 1.8 WSW 2 6 1 3 1020.0 - 0.0
21/07:30am 14.8 15.7 13.0 89 1.0 CALM 0 0 0 0 1019.6 - 0.0
21/07:00am 13.7 13.4 12.6 93 0.6 SSW 6 6 3 3 1019.2 - 0.0
21/06:30am 12.9 12.6 11.6 92 0.7 WSW 4 6 2 3 1018.8 - 0.0
21/06:00am 12.4 11.9 10.6 89 0.9 SW 4 11 2 6 1018.5 1018.5 0.0
21/05:30am 13.7 12.7 12.3 91 0.8 WNW 9 13 5 7 1018.1 - 0.0
21/05:00am 13.9 12.9 13.3 96 0.3 W 11 13 6 7 1017.8 - 0.0
21/04:30am 12.3 11.4 11.5 95 0.4 WNW 7 11 4 6 1017.5 - 0.0
21/04:00am 12.9 12.3 12.3 96 0.3 NW 7 9 4 5 1017.3 - 0.0
21/03:30am 13.8 14.0 13.2 96 0.3 NW 4 9 2 5 1017.1 - 0.0
21/03:00am 14.2 14.0 13.6 96 0.3 NW 7 9 4 5 1017.2 1017.2 0.0
21/02:30am 14.2 14.0 13.6 96 0.3 NW 7 9 4 5 1017.0 - 0.0
21/02:18am 14.2 14.6 13.6 96 0.3 NNW 4 9 2 5 1017.1 - 0.0
21/02:00am 14.1 15.2 13.5 96 0.3 CALM 0 0 0 0 1017.2 - 0.0
21/01:48am 13.9 14.9 13.1 95 0.4 CALM 0 0 0 0 1017.2 - 0.0
21/01:30am 14.6 15.9 14.0 96 0.3 CALM 0 0 0 0 1017.2 - 0.0
21/01:00am 14.8 16.1 14.0 95 0.4 CALM 0 0 0 0 1017.2 - 0.0
21/12:30am 14.6 15.8 13.8 95 0.4 CALM 0 0 0 0 1017.0 - 0.0
21/12:21am 14.4 15.5 13.6 95 0.4 CALM 0 0 0 0 1017.0 - 0.0
21/12:03am 13.9 14.8 13.0 94 0.5 CALM 0 0 0 0 1017.2 - 0.0
21/12:00am 13.8 14.7 12.9 94 0.5 CALM 0 0 0 0 1017.2 1017.2 0.0
 
Date/Time
EST
Temp
°C
App
Temp
°C
Dew
Point
Rel
Hum
%
Delta-T
°C
Wind Press
QNH
hPa
Press
MSL
hPa
Rain
since 9 am
mm
Dir
 
Spd
km/h
Gust
km/h
Spd
kts
Gust
kts
20/11:54pm 13.9 14.9 13.1 95 0.4 CALM 0 0 0 0 1017.2 - 0.0
20/11:33pm 14.2 15.2 13.2 94 0.6 CALM 0 0 0 0 1017.3 - 0.0
20/11:30pm 14.3 15.3 13.3 94 0.6 CALM 0 0 0 0 1017.3 - 0.0
20/11:07pm 14.1 15.0 13.0 93 0.6 CALM 0 0 0 0 1017.2 - 0.0
20/11:00pm 14.3 15.3 13.2 93 0.6 CALM 0 0 0 0 1017.2 - 0.0
20/10:38pm 13.7 14.5 12.4 92 0.7 CALM 0 0 0 0 1017.3 - 0.0
20/10:30pm 14.3 15.3 13.2 93 0.6 CALM 0 0 0 0 1017.3 - 0.0
20/10:00pm 14.7 15.7 13.2 91 0.8 CALM 0 0 0 0 1017.4 - 0.0
20/09:30pm 15.2 16.4 13.7 91 0.8 CALM 0 0 0 0 1017.3 - 0.0
20/09:00pm 15.4 16.6 13.9 91 0.8 CALM 0 0 0 0 1017.2 1017.2 0.0
20/08:30pm 15.7 17.0 14.1 90 0.9 CALM 0 0 0 0 1017.1 - 0.0
20/08:00pm 16.4 18.0 14.8 90 0.9 CALM 0 0 0 0 1017.1 - 0.0
20/07:30pm 16.6 18.1 14.6 88 1.1 CALM 0 0 0 0 1016.8 - 0.0

Other Formats:

Comma delimited format used in spreadsheet applications
http://www.bom.gov.au/fwo/IDN60801/IDN60801.94786.axf

JavaScript Object Notation format (JSON) in row-major order
http://www.bom.gov.au/fwo/IDN60801/IDN60801.94786.json